Airfield :
LOGIN :

Register | Disclaimer

   EN    FR    IT 

 










Legend :    VFR   Marginal VFR   IFR   Intensive IFR   Very Intensive IFR
Visi :
Ceiling :
>= 8 km
>= 3000ft
5 to 8 km
1000 to 3000 ft
1500m to 5 km
500 to 1000 ft
800 to 1500m
200 to 500 ft
< 800m
< 200 ft
Symbols :   Thunderstorms  Fog  Heavy snow  Heavy precipitations  Wind > 20 kt
SIGMETs :     Misc.  Thunderstorms  Icing  Turbulence  Mountain Waves  Volcanic Ashes






- Airport Elevation : 794 ft


LKCV - Čáslav Air Base

CURRENT METAR :
  • 282200Z 25015KT CAVOK 03/M02 Q1001 NOSIG RMK BLU BLU

EXPIRED METARs :
  • 282100Z 27009KT 9999 SCT035 BKN100 04/M02 Q1001 NOSIG RMK BLU BLU
  • 282000Z 24009KT 9999 FEW045 BKN160 03/M02 Q1000 NOSIG RMK BLU BLU

TAF TAF LKCV
Valid from the 28 at 18:00 until the 29 at 18:00 UTC


281700Z 2818/2918 24014G24KT 9999 SCT030
TEMPO 2818/2900 25020G32KT
PROB40
TEMPO 2823/2907 4000 SHRASN BKN015
TEMPO 2909/2916 25018G30KT BKN030



MET'MAP, your aeronautical weather chart ! - Copyright ORBIFLY December 2007 - Disclaimer

ORBIFLY MET'MAP TEAM :

Programming & Development : Alexandra Zaïnal
Concept & original design : Baudouin d'Aumeries
Assistance for programming : Marc-Olivier Méhu
Technical & hardware support : Manuel Goepfert

Contact : metmap@orbifly.com




SOURCES & CREDITS :

   NOAA